createdAt,value
2023-02-17T00:01:21.795Z,6.63
2023-02-17T00:06:26.052Z,6.60
2023-02-17T00:11:28.594Z,7.13
2023-02-17T00:16:30.659Z,6.43
2023-02-17T00:21:32.704Z,7.30
2023-02-17T00:26:34.598Z,6.13
2023-02-17T00:31:36.506Z,6.03
2023-02-17T00:36:39.260Z,6.47
2023-02-17T00:41:41.590Z,6.40
2023-02-17T00:46:43.536Z,5.60
2023-02-17T00:51:46.558Z,5.50
2023-02-17T00:56:48.410Z,4.13
2023-02-17T01:01:50.405Z,5.03
2023-02-17T01:06:52.228Z,5.77
2023-02-17T01:11:54.069Z,5.90
2023-02-17T01:16:55.907Z,5.60
2023-02-17T01:21:57.936Z,5.90
2023-02-17T01:26:59.750Z,5.77
2023-02-17T01:32:02.821Z,6.77
2023-02-17T01:37:04.911Z,6.83
2023-02-17T01:42:19.960Z,5.47
2023-02-17T01:47:23.694Z,6.20
2023-02-17T01:52:26.653Z,6.10
2023-02-17T01:57:31.919Z,5.13
2023-02-17T02:02:34.354Z,5.63
2023-02-17T02:07:40.553Z,5.97
2023-02-17T02:12:44.484Z,6.37
2023-02-17T02:17:46.439Z,6.23
2023-02-17T02:22:51.361Z,6.63
2023-02-17T02:28:30.700Z,5.80
2023-02-17T02:33:35.487Z,5.47
2023-02-17T02:38:49.805Z,5.77
2023-02-17T02:43:52.614Z,6.67
2023-02-17T02:48:54.548Z,7.40
2023-02-17T02:54:02.471Z,6.53
2023-02-17T02:59:11.688Z,6.40
2023-02-17T03:04:27.458Z,6.70
2023-02-17T03:09:30.850Z,5.37
2023-02-17T03:14:37.430Z,6.03
2023-02-17T03:19:39.661Z,5.13
2023-02-17T03:24:41.546Z,5.07
2023-02-17T03:29:44.100Z,6.10
2023-02-17T03:34:46.502Z,5.77
2023-02-17T03:39:48.368Z,6.70
2023-02-17T03:44:50.581Z,6.40
2023-02-17T03:49:52.380Z,5.73
2023-02-17T03:54:54.160Z,6.40
2023-02-17T03:59:55.911Z,5.07
2023-02-17T04:04:58.012Z,6.00
2023-02-17T04:10:00.015Z,4.87
2023-02-17T04:15:01.834Z,5.80
2023-02-17T04:20:06.122Z,5.10
2023-02-17T04:25:08.317Z,5.37
2023-02-17T04:30:12.415Z,5.37
2023-02-17T04:35:14.366Z,5.47
2023-02-17T04:40:16.750Z,5.13
2023-02-17T04:45:19.013Z,5.50
2023-02-17T04:50:21.385Z,4.67
2023-02-17T04:55:23.328Z,4.17
2023-02-17T05:00:25.355Z,4.77
2023-02-17T05:05:27.701Z,4.73
2023-02-17T05:10:29.747Z,5.13
2023-02-17T05:15:34.404Z,4.13
2023-02-17T05:20:36.758Z,4.30
2023-02-17T05:25:40.841Z,5.20
2023-02-17T05:30:42.807Z,5.00
2023-02-17T05:35:44.591Z,4.50
2023-02-17T05:40:46.680Z,4.43
2023-02-17T05:45:48.667Z,4.57
2023-02-17T05:50:50.641Z,3.80
2023-02-17T05:55:52.598Z,3.80
2023-02-17T06:00:54.395Z,4.53
2023-02-17T06:05:56.255Z,4.90
2023-02-17T06:10:58.082Z,4.37
2023-02-17T06:16:00.089Z,4.10
2023-02-17T06:21:02.156Z,4.97
2023-02-17T06:26:04.409Z,3.97
2023-02-17T06:31:06.763Z,4.90
2023-02-17T06:36:09.116Z,4.97
2023-02-17T06:41:10.983Z,5.00
2023-02-17T06:46:12.811Z,6.00
2023-02-17T06:51:14.774Z,5.70
2023-02-17T06:56:16.561Z,8.63
2023-02-17T07:01:21.223Z,7.00
2023-02-17T07:06:25.070Z,5.70
2023-02-17T07:11:31.257Z,5.87
2023-02-17T07:16:33.580Z,5.77
2023-02-17T07:21:35.405Z,5.20
2023-02-17T07:26:41.011Z,6.03
2023-02-17T07:31:43.082Z,6.27
2023-02-17T07:36:44.954Z,6.73
2023-02-17T07:41:46.904Z,5.57
2023-02-17T07:46:52.617Z,6.50
2023-02-17T07:51:54.445Z,5.63
2023-02-17T07:56:56.399Z,6.27
2023-02-17T08:01:58.348Z,4.93
2023-02-17T08:07:00.354Z,5.67
2023-02-17T08:12:20.810Z,5.77
2023-02-17T08:17:22.628Z,5.13
2023-02-17T08:22:24.462Z,4.93
2023-02-17T08:27:26.289Z,5.23
2023-02-17T08:32:28.354Z,5.47
2023-02-17T08:37:31.786Z,4.67
2023-02-17T08:42:33.867Z,3.83
2023-02-17T08:47:36.202Z,4.07
2023-02-17T08:52:38.021Z,4.60
2023-02-17T08:57:40.028Z,3.93
2023-02-17T09:02:44.933Z,3.10
2023-02-17T09:07:46.753Z,3.40
2023-02-17T09:12:48.802Z,3.60
2023-02-17T09:17:50.771Z,3.80
2023-02-17T09:22:52.858Z,2.93
2023-02-17T09:27:54.763Z,2.70
2023-02-17T09:32:57.360Z,3.13
2023-02-17T09:38:00.701Z,2.50
2023-02-17T09:43:02.795Z,2.33
2023-02-17T09:48:12.585Z,2.50
2023-02-17T09:53:36.689Z,2.95
2023-02-17T09:58:43.092Z,3.47
2023-02-17T10:03:50.215Z,2.40
2023-02-17T10:09:13.009Z,2.22
2023-02-17T10:14:35.303Z,1.92
2023-02-17T10:19:56.790Z,2.00
2023-02-17T10:25:00.478Z,1.80
2023-02-17T10:30:22.752Z,1.45
2023-02-17T10:35:40.633Z,1.95
2023-02-17T10:40:45.371Z,1.67
2023-02-17T10:45:51.272Z,1.70
2023-02-17T10:50:56.210Z,2.13
2023-02-17T10:56:16.755Z,4.15
2023-02-17T11:01:18.911Z,2.45
2023-02-17T11:06:22.417Z,1.52
2023-02-17T11:11:27.143Z,2.00
2023-02-17T11:16:39.269Z,1.17
2023-02-17T11:21:43.818Z,0.82
2023-02-17T11:26:59.615Z,1.20
2023-02-17T11:32:07.314Z,1.40
2023-02-17T11:37:09.280Z,1.65
2023-02-17T11:42:25.726Z,1.40
2023-02-17T11:47:57.123Z,1.20
2023-02-17T11:53:14.262Z,0.60
2023-02-17T11:58:43.557Z,0.80
2023-02-17T12:04:22.843Z,0.63
2023-02-17T12:09:34.102Z,0.65
2023-02-17T12:14:57.823Z,0.70
2023-02-17T12:20:07.156Z,0.77
2023-02-17T12:25:24.764Z,0.52
2023-02-17T12:31:14.663Z,0.60
2023-02-17T12:36:19.448Z,1.00
2023-02-17T12:41:26.866Z,0.43
2023-02-17T12:46:35.262Z,0.60
2023-02-17T12:51:54.742Z,0.50
2023-02-17T12:57:12.475Z,0.40
2023-02-17T13:02:20.659Z,0.90
2023-02-17T13:07:45.329Z,2.42
2023-02-17T13:13:02.402Z,0.40
2023-02-17T13:18:26.109Z,0.60
2023-02-17T13:23:38.340Z,0.50
2023-02-17T13:28:41.381Z,0.80
2023-02-17T13:33:52.423Z,5.32
2023-02-17T13:39:00.302Z,0.50
2023-02-17T13:44:21.532Z,0.70
2023-02-17T13:49:27.627Z,0.60
2023-02-17T13:54:29.478Z,0.55
2023-02-17T13:59:31.489Z,0.43
2023-02-17T14:04:33.541Z,0.60
2023-02-17T14:09:35.582Z,0.60
2023-02-17T14:14:39.127Z,0.70
2023-02-17T14:19:48.968Z,0.55
2023-02-17T14:25:08.490Z,0.70
2023-02-17T14:30:33.356Z,0.50
2023-02-17T14:35:36.217Z,0.70
2023-02-17T14:40:40.078Z,0.60
2023-02-17T14:45:42.204Z,0.77
2023-02-17T14:50:44.812Z,1.10
2023-02-17T14:55:53.418Z,1.03
2023-02-17T15:00:55.357Z,3.13
2023-02-17T15:05:58.137Z,1.73
2023-02-17T15:11:00.532Z,1.00
2023-02-17T15:16:02.413Z,0.90
2023-02-17T15:21:17.796Z,0.63
2023-02-17T15:26:19.910Z,1.20
2023-02-17T15:31:21.768Z,1.33
2023-02-17T15:36:24.414Z,0.80
2023-02-17T15:41:29.811Z,1.87
2023-02-17T15:46:33.703Z,1.90
2023-02-17T15:51:35.542Z,1.90
2023-02-17T15:56:48.304Z,2.13
2023-02-17T16:01:53.261Z,1.83
2023-02-17T16:06:55.231Z,1.60
2023-02-17T16:11:57.367Z,2.10
2023-02-17T16:16:59.310Z,1.60
2023-02-17T16:22:01.231Z,3.20
2023-02-17T16:27:03.322Z,3.07
2023-02-17T16:32:05.258Z,3.53
2023-02-17T16:37:14.824Z,3.00
2023-02-17T16:42:16.692Z,2.90
2023-02-17T16:47:22.424Z,3.47
2023-02-17T16:52:27.089Z,3.60
2023-02-17T16:57:29.104Z,3.97
2023-02-17T17:02:30.981Z,2.70
2023-02-17T17:07:33.529Z,2.30
2023-02-17T17:12:35.450Z,3.70
2023-02-17T17:17:42.854Z,2.90
2023-02-17T17:22:46.646Z,3.07
2023-02-17T17:27:48.503Z,3.63
2023-02-17T17:32:50.928Z,3.47
2023-02-17T17:37:52.917Z,3.47
2023-02-17T17:42:54.756Z,3.70
2023-02-17T17:47:56.851Z,3.47
2023-02-17T17:52:58.867Z,3.77
2023-02-17T17:58:00.663Z,3.60
2023-02-17T18:03:02.458Z,3.97
2023-02-17T18:08:05.489Z,3.67
2023-02-17T18:13:09.371Z,3.77
2023-02-17T18:18:12.243Z,3.60
2023-02-17T18:23:14.140Z,3.67
2023-02-17T18:28:16.145Z,3.70
2023-02-17T18:33:18.242Z,3.33
2023-02-17T18:38:20.182Z,3.37
2023-02-17T18:43:22.837Z,3.50
2023-02-17T18:48:24.745Z,4.20
2023-02-17T18:53:27.261Z,4.20
2023-02-17T18:58:32.145Z,4.37
2023-02-17T19:03:34.083Z,4.00
2023-02-17T19:08:35.920Z,4.63
2023-02-17T19:13:38.327Z,4.17
2023-02-17T19:18:41.544Z,10.10
2023-02-17T19:23:43.717Z,4.20
2023-02-17T19:28:45.992Z,5.33
2023-02-17T19:33:48.099Z,4.43
2023-02-17T19:38:50.447Z,5.73
2023-02-17T19:43:52.233Z,5.70
2023-02-17T19:48:54.054Z,5.67
2023-02-17T19:53:57.996Z,5.70
2023-02-17T19:59:00.220Z,5.87
2023-02-17T20:04:05.104Z,5.63
2023-02-17T20:09:11.829Z,7.33
2023-02-17T20:14:13.949Z,6.73
2023-02-17T20:19:16.152Z,7.90
2023-02-17T20:24:18.210Z,7.20
2023-02-17T20:29:20.618Z,7.37
2023-02-17T20:34:31.252Z,6.73
2023-02-17T20:39:35.473Z,8.07
2023-02-17T20:44:37.571Z,6.50
2023-02-17T20:49:39.560Z,7.67
2023-02-17T20:54:41.511Z,8.17
2023-02-17T20:59:43.640Z,8.20
2023-02-17T21:04:45.851Z,7.73
2023-02-17T21:09:48.014Z,7.93
2023-02-17T21:14:50.064Z,8.60
2023-02-17T21:19:52.008Z,8.90
2023-02-17T21:24:53.894Z,8.17
2023-02-17T21:29:55.895Z,8.13
2023-02-17T21:34:57.959Z,8.60
2023-02-17T21:40:01.111Z,8.70
2023-02-17T21:45:03.134Z,9.33
2023-02-17T21:50:06.968Z,10.00
2023-02-17T21:55:08.934Z,10.57
2023-02-17T22:00:13.013Z,10.00
2023-02-17T22:05:14.993Z,10.87
2023-02-17T22:10:17.749Z,11.40
2023-02-17T22:15:19.557Z,11.93
2023-02-17T22:20:21.850Z,11.03
2023-02-17T22:25:24.576Z,12.93
2023-02-17T22:30:27.687Z,10.30
2023-02-17T22:35:29.736Z,11.27
2023-02-17T22:40:31.514Z,12.07
2023-02-17T22:45:33.562Z,12.57
2023-02-17T22:50:41.570Z,11.07
2023-02-17T22:55:50.928Z,12.37
2023-02-17T23:01:06.305Z,12.47
2023-02-17T23:06:14.769Z,12.80
2023-02-17T23:11:39.788Z,13.00
2023-02-17T23:16:41.977Z,12.97
2023-02-17T23:21:47.057Z,13.20
2023-02-17T23:26:49.472Z,13.60
2023-02-17T23:31:51.564Z,12.60
2023-02-17T23:36:53.347Z,13.23
2023-02-17T23:41:55.308Z,12.77
2023-02-17T23:46:57.247Z,13.17
2023-02-17T23:51:59.520Z,13.10
2023-02-17T23:57:01.280Z,12.33
